sensor_id;sensor_type;location;lat;lon;timestamp;pressure;altitude;pressure_sealevel;temperature;humidity
8366;BME280;4220;42.502;24.188;2023-04-22T00:00:11;94958.41;;;11.70;100.00
8366;BME280;4220;42.502;24.188;2023-04-22T00:02:39;94951.28;;;11.70;100.00
8366;BME280;4220;42.502;24.188;2023-04-22T00:05:07;94957.84;;;11.79;100.00
8366;BME280;4220;42.502;24.188;2023-04-22T00:07:38;94963.84;;;11.75;100.00
8366;BME280;4220;42.502;24.188;2023-04-22T00:10:06;94963.59;;;11.53;100.00
8366;BME280;4220;42.502;24.188;2023-04-22T00:12:33;94965.31;;;11.48;100.00
8366;BME280;4220;42.502;24.188;2023-04-22T00:15:00;94961.50;;;11.32;100.00
8366;BME280;4220;42.502;24.188;2023-04-22T00:17:28;94936.00;;;10.78;100.00
8366;BME280;4220;42.502;24.188;2023-04-22T00:19:55;94971.47;;;10.66;100.00
8366;BME280;4220;42.502;24.188;2023-04-22T00:22:22;94968.38;;;10.50;100.00
8366;BME280;4220;42.502;24.188;2023-04-22T00:24:49;94969.63;;;10.66;100.00
8366;BME280;4220;42.502;24.188;2023-04-22T00:27:16;94965.44;;;10.59;100.00
8366;BME280;4220;42.502;24.188;2023-04-22T00:29:43;94968.25;;;10.45;100.00
8366;BME280;4220;42.502;24.188;2023-04-22T00:32:10;94970.03;;;10.33;100.00
8366;BME280;4220;42.502;24.188;2023-04-22T00:34:38;94960.47;;;10.14;100.00
8366;BME280;4220;42.502;24.188;2023-04-22T00:37:05;94960.50;;;10.08;100.00
8366;BME280;4220;42.502;24.188;2023-04-22T00:39:32;94957.00;;;10.14;100.00
8366;BME280;4220;42.502;24.188;2023-04-22T00:41:59;94949.66;;;10.16;100.00
8366;BME280;4220;42.502;24.188;2023-04-22T00:44:28;94945.91;;;10.23;100.00
8366;BME280;4220;42.502;24.188;2023-04-22T00:46:55;94947.88;;;10.28;100.00
8366;BME280;4220;42.502;24.188;2023-04-22T00:49:24;94951.56;;;10.27;100.00
8366;BME280;4220;42.502;24.188;2023-04-22T00:51:54;94946.53;;;10.37;100.00
8366;BME280;4220;42.502;24.188;2023-04-22T00:54:21;94955.66;;;10.41;100.00
8366;BME280;4220;42.502;24.188;2023-04-22T00:56:48;94958.75;;;10.38;100.00
8366;BME280;4220;42.502;24.188;2023-04-22T00:59:15;94961.41;;;10.38;100.00
8366;BME280;4220;42.502;24.188;2023-04-22T01:01:42;94965.38;;;10.47;100.00
8366;BME280;4220;42.502;24.188;2023-04-22T01:04:08;94971.38;;;10.54;100.00
8366;BME280;4220;42.502;24.188;2023-04-22T01:06:38;94972.06;;;10.49;100.00
8366;BME280;4220;42.502;24.188;2023-04-22T01:09:07;94962.81;;;10.40;100.00
8366;BME280;4220;42.502;24.188;2023-04-22T01:11:34;94957.88;;;10.26;100.00
8366;BME280;4220;42.502;24.188;2023-04-22T01:14:01;94903.06;;;9.90;100.00
8366;BME280;4220;42.502;24.188;2023-04-22T01:16:29;94965.94;;;10.19;100.00
8366;BME280;4220;42.502;24.188;2023-04-22T01:18:58;94959.72;;;10.07;100.00
8366;BME280;4220;42.502;24.188;2023-04-22T01:21:25;94968.38;;;9.96;100.00
8366;BME280;4220;42.502;24.188;2023-04-22T01:23:54;94962.63;;;9.81;100.00
8366;BME280;4220;42.502;24.188;2023-04-22T01:26:21;94966.63;;;9.90;100.00
8366;BME280;4220;42.502;24.188;2023-04-22T01:28:48;94954.78;;;9.74;100.00
8366;BME280;4220;42.502;24.188;2023-04-22T01:31:15;94957.06;;;9.89;100.00
8366;BME280;4220;42.502;24.188;2023-04-22T01:33:42;94956.69;;;10.04;100.00
8366;BME280;4220;42.502;24.188;2023-04-22T01:36:10;94949.28;;;10.12;100.00
8366;BME280;4220;42.502;24.188;2023-04-22T01:38:37;94956.59;;;10.17;100.00
8366;BME280;4220;42.502;24.188;2023-04-22T01:41:05;94929.00;;;9.63;100.00
8366;BME280;4220;42.502;24.188;2023-04-22T01:43:33;94917.25;;;9.59;100.00
8366;BME280;4220;42.502;24.188;2023-04-22T01:46:00;94965.94;;;9.76;100.00
8366;BME280;4220;42.502;24.188;2023-04-22T01:48:28;94952.97;;;9.68;100.00
8366;BME280;4220;42.502;24.188;2023-04-22T01:50:55;94954.72;;;9.56;100.00
8366;BME280;4220;42.502;24.188;2023-04-22T01:53:22;94954.22;;;9.48;100.00
8366;BME280;4220;42.502;24.188;2023-04-22T01:55:48;94963.00;;;9.42;100.00
8366;BME280;4220;42.502;24.188;2023-04-22T01:58:17;94954.59;;;9.27;100.00
8366;BME280;4220;42.502;24.188;2023-04-22T02:00:43;94953.19;;;9.24;100.00
8366;BME280;4220;42.502;24.188;2023-04-22T02:03:12;94954.56;;;9.33;100.00
8366;BME280;4220;42.502;24.188;2023-04-22T02:05:39;94960.94;;;9.44;100.00
8366;BME280;4220;42.502;24.188;2023-04-22T02:08:05;94958.09;;;9.45;100.00
8366;BME280;4220;42.502;24.188;2023-04-22T02:10:32;94952.97;;;9.50;100.00
8366;BME280;4220;42.502;24.188;2023-04-22T02:12:59;94954.88;;;9.43;100.00
8366;BME280;4220;42.502;24.188;2023-04-22T02:15:27;94958.53;;;9.42;100.00
8366;BME280;4220;42.502;24.188;2023-04-22T02:17:54;94958.25;;;9.50;100.00
8366;BME280;4220;42.502;24.188;2023-04-22T02:20:21;94921.47;;;9.42;100.00
8366;BME280;4220;42.502;24.188;2023-04-22T02:22:48;94919.41;;;9.44;100.00
8366;BME280;4220;42.502;24.188;2023-04-22T02:25:15;94950.06;;;9.76;100.00
8366;BME280;4220;42.502;24.188;2023-04-22T02:27:42;94951.06;;;9.57;100.00
8366;BME280;4220;42.502;24.188;2023-04-22T02:30:09;94961.75;;;9.69;100.00
8366;BME280;4220;42.502;24.188;2023-04-22T02:32:38;94918.56;;;9.50;100.00
8366;BME280;4220;42.502;24.188;2023-04-22T02:35:05;94959.47;;;9.72;100.00
8366;BME280;4220;42.502;24.188;2023-04-22T02:37:32;94962.41;;;9.64;100.00
8366;BME280;4220;42.502;24.188;2023-04-22T02:39:59;94959.31;;;9.67;100.00
8366;BME280;4220;42.502;24.188;2023-04-22T02:42:26;94925.44;;;9.51;100.00
8366;BME280;4220;42.502;24.188;2023-04-22T02:44:52;94944.09;;;9.63;100.00
8366;BME280;4220;42.502;24.188;2023-04-22T02:47:20;94954.38;;;9.71;100.00
8366;BME280;4220;42.502;24.188;2023-04-22T02:49:48;94947.53;;;9.63;100.00
8366;BME280;4220;42.502;24.188;2023-04-22T02:52:15;94965.63;;;9.66;100.00
8366;BME280;4220;42.502;24.188;2023-04-22T02:54:41;94950.78;;;9.65;100.00
8366;BME280;4220;42.502;24.188;2023-04-22T02:57:08;94954.63;;;9.69;100.00
8366;BME280;4220;42.502;24.188;2023-04-22T02:59:35;94959.09;;;9.69;100.00
8366;BME280;4220;42.502;24.188;2023-04-22T03:02:02;94962.16;;;9.66;100.00
8366;BME280;4220;42.502;24.188;2023-04-22T03:04:29;94962.00;;;9.61;100.00
8366;BME280;4220;42.502;24.188;2023-04-22T03:06:58;94970.69;;;9.50;100.00
8366;BME280;4220;42.502;24.188;2023-04-22T03:09:25;94958.63;;;9.29;100.00
8366;BME280;4220;42.502;24.188;2023-04-22T03:11:51;94949.09;;;9.03;100.00
8366;BME280;4220;42.502;24.188;2023-04-22T03:14:18;94969.59;;;9.08;100.00
8366;BME280;4220;42.502;24.188;2023-04-22T03:16:45;94962.66;;;8.82;100.00
8366;BME280;4220;42.502;24.188;2023-04-22T03:19:12;94968.88;;;8.63;100.00
8366;BME280;4220;42.502;24.188;2023-04-22T03:21:39;94974.84;;;8.45;100.00
8366;BME280;4220;42.502;24.188;2023-04-22T03:24:07;94968.16;;;8.49;100.00
8366;BME280;4220;42.502;24.188;2023-04-22T03:26:34;94966.28;;;8.57;100.00
8366;BME280;4220;42.502;24.188;2023-04-22T03:29:00;94971.50;;;8.70;100.00
8366;BME280;4220;42.502;24.188;2023-04-22T03:31:27;94966.34;;;8.75;100.00
8366;BME280;4220;42.502;24.188;2023-04-22T03:33:54;94973.19;;;8.89;100.00
8366;BME280;4220;42.502;24.188;2023-04-22T03:36:21;94969.69;;;8.95;100.00
8366;BME280;4220;42.502;24.188;2023-04-22T03:38:48;94969.97;;;8.87;100.00
8366;BME280;4220;42.502;24.188;2023-04-22T03:41:17;94977.25;;;8.91;100.00
8366;BME280;4220;42.502;24.188;2023-04-22T03:43:44;94974.19;;;8.57;100.00
8366;BME280;4220;42.502;24.188;2023-04-22T03:46:10;94981.22;;;8.31;100.00
8366;BME280;4220;42.502;24.188;2023-04-22T03:48:37;94978.00;;;8.16;100.00
8366;BME280;4220;42.502;24.188;2023-04-22T03:51:04;94983.03;;;8.37;100.00
8366;BME280;4220;42.502;24.188;2023-04-22T03:53:31;94984.84;;;8.43;100.00
8366;BME280;4220;42.502;24.188;2023-04-22T03:55:58;94977.53;;;8.39;100.00
8366;BME280;4220;42.502;24.188;2023-04-22T03:58:26;94978.41;;;8.26;100.00
8366;BME280;4220;42.502;24.188;2023-04-22T04:00:53;94983.69;;;8.33;100.00
8366;BME280;4220;42.502;24.188;2023-04-22T04:03:20;94981.09;;;8.13;100.00
8366;BME280;4220;42.502;24.188;2023-04-22T04:05:47;94989.63;;;8.02;100.00
8366;BME280;4220;42.502;24.188;2023-04-22T04:08:13;94993.97;;;7.83;100.00
8366;BME280;4220;42.502;24.188;2023-04-22T04:10:41;95001.59;;;8.11;100.00
8366;BME280;4220;42.502;24.188;2023-04-22T04:13:07;94999.53;;;8.33;100.00
8366;BME280;4220;42.502;24.188;2023-04-22T04:15:36;95003.09;;;8.51;100.00
8366;BME280;4220;42.502;24.188;2023-04-22T04:18:03;95002.19;;;8.71;100.00
8366;BME280;4220;42.502;24.188;2023-04-22T04:20:29;95000.47;;;8.83;100.00
8366;BME280;4220;42.502;24.188;2023-04-22T04:22:56;95003.66;;;8.98;100.00
8366;BME280;4220;42.502;24.188;2023-04-22T04:25:23;95009.81;;;9.16;100.00
8366;BME280;4220;42.502;24.188;2023-04-22T04:27:50;95012.00;;;9.26;100.00
8366;BME280;4220;42.502;24.188;2023-04-22T04:30:17;95018.06;;;9.33;100.00
8366;BME280;4220;42.502;24.188;2023-04-22T04:32:47;95015.13;;;9.41;100.00
8366;BME280;4220;42.502;24.188;2023-04-22T04:35:14;95010.63;;;9.48;100.00
8366;BME280;4220;42.502;24.188;2023-04-22T04:37:42;95018.28;;;9.56;100.00
8366;BME280;4220;42.502;24.188;2023-04-22T04:40:10;95007.09;;;9.54;100.00
8366;BME280;4220;42.502;24.188;2023-04-22T04:42:38;95017.44;;;9.56;100.00
8366;BME280;4220;42.502;24.188;2023-04-22T04:45:05;95017.41;;;9.62;100.00
8366;BME280;4220;42.502;24.188;2023-04-22T04:47:33;95022.56;;;9.57;100.00
8366;BME280;4220;42.502;24.188;2023-04-22T04:50:01;95019.47;;;9.60;100.00
8366;BME280;4220;42.502;24.188;2023-04-22T04:52:29;95030.38;;;9.70;100.00
8366;BME280;4220;42.502;24.188;2023-04-22T04:54:56;95022.22;;;9.72;100.00
8366;BME280;4220;42.502;24.188;2023-04-22T04:57:23;95019.06;;;9.81;100.00
8366;BME280;4220;42.502;24.188;2023-04-22T04:59:50;95026.09;;;9.94;100.00
8366;BME280;4220;42.502;24.188;2023-04-22T05:02:17;95009.56;;;9.74;100.00
8366;BME280;4220;42.502;24.188;2023-04-22T05:04:44;95023.88;;;9.91;100.00
8366;BME280;4220;42.502;24.188;2023-04-22T05:07:12;94982.25;;;9.73;100.00
8366;BME280;4220;42.502;24.188;2023-04-22T05:09:39;95019.66;;;9.83;100.00
8366;BME280;4220;42.502;24.188;2023-04-22T05:12:06;95022.56;;;9.75;100.00
8366;BME280;4220;42.502;24.188;2023-04-22T05:14:34;95020.56;;;9.96;100.00
8366;BME280;4220;42.502;24.188;2023-04-22T05:17:01;94960.03;;;9.56;100.00
8366;BME280;4220;42.502;24.188;2023-04-22T05:19:28;95006.06;;;9.98;100.00
8366;BME280;4220;42.502;24.188;2023-04-22T05:21:55;95009.66;;;10.28;100.00
8366;BME280;4220;42.502;24.188;2023-04-22T05:24:23;94995.19;;;10.42;100.00
8366;BME280;4220;42.502;24.188;2023-04-22T05:26:50;94999.25;;;10.63;100.00
8366;BME280;4220;42.502;24.188;2023-04-22T05:29:17;95014.78;;;10.89;100.00
8366;BME280;4220;42.502;24.188;2023-04-22T05:31:44;95006.09;;;11.00;100.00
8366;BME280;4220;42.502;24.188;2023-04-22T05:34:11;94947.63;;;10.77;100.00
8366;BME280;4220;42.502;24.188;2023-04-22T05:36:38;95011.38;;;11.30;100.00
8366;BME280;4220;42.502;24.188;2023-04-22T05:39:05;94978.78;;;11.23;100.00
8366;BME280;4220;42.502;24.188;2023-04-22T05:41:33;95015.00;;;11.59;100.00
8366;BME280;4220;42.502;24.188;2023-04-22T05:44:00;95020.44;;;11.64;100.00
8366;BME280;4220;42.502;24.188;2023-04-22T05:46:27;95018.16;;;11.79;100.00
8366;BME280;4220;42.502;24.188;2023-04-22T05:48:54;95018.97;;;11.91;100.00
8366;BME280;4220;42.502;24.188;2023-04-22T05:51:21;95019.22;;;12.01;100.00
8366;BME280;4220;42.502;24.188;2023-04-22T05:53:48;95026.72;;;12.16;100.00
8366;BME280;4220;42.502;24.188;2023-04-22T05:56:15;95007.84;;;12.17;100.00
8366;BME280;4220;42.502;24.188;2023-04-22T05:58:44;95029.13;;;12.40;100.00
8366;BME280;4220;42.502;24.188;2023-04-22T06:01:11;95029.22;;;12.45;100.00
8366;BME280;4220;42.502;24.188;2023-04-22T06:03:37;95030.00;;;12.58;100.00
8366;BME280;4220;42.502;24.188;2023-04-22T06:06:05;95025.69;;;12.68;100.00
8366;BME280;4220;42.502;24.188;2023-04-22T06:08:32;95026.34;;;12.87;100.00
8366;BME280;4220;42.502;24.188;2023-04-22T06:10:59;95027.31;;;12.97;100.00
8366;BME280;4220;42.502;24.188;2023-04-22T06:13:26;95023.94;;;13.14;100.00
8366;BME280;4220;42.502;24.188;2023-04-22T06:15:54;95036.72;;;13.28;100.00
8366;BME280;4220;42.502;24.188;2023-04-22T06:18:21;95038.03;;;13.42;100.00
8366;BME280;4220;42.502;24.188;2023-04-22T06:20:48;95030.13;;;13.47;100.00
8366;BME280;4220;42.502;24.188;2023-04-22T06:23:14;95030.22;;;13.52;100.00
8366;BME280;4220;42.502;24.188;2023-04-22T06:25:41;95026.91;;;13.62;100.00
8366;BME280;4220;42.502;24.188;2023-04-22T06:28:08;95035.63;;;13.74;100.00
8366;BME280;4220;42.502;24.188;2023-04-22T06:30:35;95027.06;;;13.89;100.00
8366;BME280;4220;42.502;24.188;2023-04-22T06:33:03;95040.72;;;14.09;100.00
8366;BME280;4220;42.502;24.188;2023-04-22T06:35:30;95043.88;;;14.22;100.00
8366;BME280;4220;42.502;24.188;2023-04-22T06:37:57;95027.47;;;14.30;100.00
8366;BME280;4220;42.502;24.188;2023-04-22T06:40:24;95044.00;;;14.49;100.00
8366;BME280;4220;42.502;24.188;2023-04-22T06:42:51;95030.16;;;14.52;100.00
8366;BME280;4220;42.502;24.188;2023-04-22T06:45:18;95038.31;;;14.62;99.32
8366;BME280;4220;42.502;24.188;2023-04-22T06:47:45;95041.28;;;14.44;100.00
8366;BME280;4220;42.502;24.188;2023-04-22T06:50:13;95042.47;;;14.53;100.00
8366;BME280;4220;42.502;24.188;2023-04-22T06:52:40;95032.91;;;14.57;100.00
8366;BME280;4220;42.502;24.188;2023-04-22T06:55:08;95033.97;;;14.56;100.00
8366;BME280;4220;42.502;24.188;2023-04-22T06:57:35;95036.22;;;14.64;100.00
8366;BME280;4220;42.502;24.188;2023-04-22T07:00:02;95002.44;;;14.53;100.00
8366;BME280;4220;42.502;24.188;2023-04-22T07:02:29;95007.22;;;14.51;100.00
8366;BME280;4220;42.502;24.188;2023-04-22T07:04:56;95000.19;;;14.45;100.00
8366;BME280;4220;42.502;24.188;2023-04-22T07:07:24;95041.22;;;14.61;100.00
8366;BME280;4220;42.502;24.188;2023-04-22T07:09:51;95039.47;;;14.50;100.00
8366;BME280;4220;42.502;24.188;2023-04-22T07:12:18;95032.03;;;14.52;100.00
8366;BME280;4220;42.502;24.188;2023-04-22T07:14:45;95039.13;;;14.63;100.00
8366;BME280;4220;42.502;24.188;2023-04-22T07:17:12;95036.91;;;14.76;100.00
8366;BME280;4220;42.502;24.188;2023-04-22T07:19:39;95044.53;;;14.89;100.00
8366;BME280;4220;42.502;24.188;2023-04-22T07:22:06;95033.41;;;14.97;100.00
8366;BME280;4220;42.502;24.188;2023-04-22T07:24:34;95031.59;;;15.03;99.28
8366;BME280;4220;42.502;24.188;2023-04-22T07:27:02;95030.03;;;15.07;99.30
8366;BME280;4220;42.502;24.188;2023-04-22T07:29:29;95034.19;;;15.20;99.23
8366;BME280;4220;42.502;24.188;2023-04-22T07:31:55;95034.78;;;15.27;98.81
8366;BME280;4220;42.502;24.188;2023-04-22T07:34:22;95031.41;;;15.36;97.94
8366;BME280;4220;42.502;24.188;2023-04-22T07:36:49;95037.81;;;15.57;96.98
8366;BME280;4220;42.502;24.188;2023-04-22T07:39:18;95044.91;;;15.73;95.15
8366;BME280;4220;42.502;24.188;2023-04-22T07:41:46;95032.28;;;15.68;95.26
8366;BME280;4220;42.502;24.188;2023-04-22T07:44:13;95046.16;;;15.97;95.24
8366;BME280;4220;42.502;24.188;2023-04-22T07:46:42;95039.53;;;16.05;94.58
8366;BME280;4220;42.502;24.188;2023-04-22T07:49:09;95027.06;;;16.15;93.39
8366;BME280;4220;42.502;24.188;2023-04-22T07:51:38;95043.19;;;16.25;92.75
8366;BME280;4220;42.502;24.188;2023-04-22T07:54:05;95046.75;;;16.36;94.21
8366;BME280;4220;42.502;24.188;2023-04-22T07:56:32;95037.69;;;16.47;91.72
8366;BME280;4220;42.502;24.188;2023-04-22T07:59:01;95047.44;;;16.58;91.93
8366;BME280;4220;42.502;24.188;2023-04-22T08:01:28;95044.22;;;16.61;89.08
8366;BME280;4220;42.502;24.188;2023-04-22T08:03:55;95028.16;;;16.61;90.13
8366;BME280;4220;42.502;24.188;2023-04-22T08:06:22;95039.00;;;16.86;89.95
8366;BME280;4220;42.502;24.188;2023-04-22T08:08:49;95029.66;;;16.94;88.41
8366;BME280;4220;42.502;24.188;2023-04-22T08:11:16;95040.19;;;17.21;88.14
8366;BME280;4220;42.502;24.188;2023-04-22T08:13:43;95011.75;;;17.05;87.02
8366;BME280;4220;42.502;24.188;2023-04-22T08:16:11;95036.19;;;17.28;85.83
8366;BME280;4220;42.502;24.188;2023-04-22T08:18:38;95026.28;;;17.29;85.57
8366;BME280;4220;42.502;24.188;2023-04-22T08:21:05;95025.50;;;17.38;85.50
8366;BME280;4220;42.502;24.188;2023-04-22T08:23:32;94983.44;;;17.39;84.58
8366;BME280;4220;42.502;24.188;2023-04-22T08:25:59;95014.31;;;17.72;82.94
8366;BME280;4220;42.502;24.188;2023-04-22T08:28:26;95019.69;;;17.72;83.35
8366;BME280;4220;42.502;24.188;2023-04-22T08:30:53;95018.09;;;17.81;83.14
8366;BME280;4220;42.502;24.188;2023-04-22T08:33:21;95017.00;;;17.82;81.89
8366;BME280;4220;42.502;24.188;2023-04-22T08:35:48;95019.69;;;17.82;82.24
8366;BME280;4220;42.502;24.188;2023-04-22T08:38:14;95020.78;;;17.81;82.16
8366;BME280;4220;42.502;24.188;2023-04-22T08:40:41;95012.72;;;17.81;82.55
8366;BME280;4220;42.502;24.188;2023-04-22T08:43:08;94988.84;;;17.59;83.71
8366;BME280;4220;42.502;24.188;2023-04-22T08:45:38;95013.16;;;17.42;85.24
8366;BME280;4220;42.502;24.188;2023-04-22T08:48:06;95001.34;;;17.28;87.35
8366;BME280;4220;42.502;24.188;2023-04-22T08:50:36;94999.69;;;17.02;87.37
8366;BME280;4220;42.502;24.188;2023-04-22T08:53:04;94968.47;;;16.71;86.29
8366;BME280;4220;42.502;24.188;2023-04-22T08:55:31;95006.34;;;16.89;86.90
8366;BME280;4220;42.502;24.188;2023-04-22T08:58:00;95015.19;;;16.90;85.54
8366;BME280;4220;42.502;24.188;2023-04-22T09:00:28;95004.97;;;16.87;86.67
8366;BME280;4220;42.502;24.188;2023-04-22T09:03:00;95011.19;;;16.92;81.89
8366;BME280;4220;42.502;24.188;2023-04-22T09:05:27;94897.63;;;16.36;80.93
8366;BME280;4220;42.502;24.188;2023-04-22T09:07:56;95017.41;;;17.23;82.03
8366;BME280;4220;42.502;24.188;2023-04-22T09:10:24;95009.94;;;17.30;80.71
8366;BME280;4220;42.502;24.188;2023-04-22T09:12:52;95010.78;;;17.46;79.19
8366;BME280;4220;42.502;24.188;2023-04-22T09:15:19;95014.03;;;17.58;80.71
8366;BME280;4220;42.502;24.188;2023-04-22T09:17:50;95018.06;;;17.60;79.67
8366;BME280;4220;42.502;24.188;2023-04-22T09:20:17;95001.97;;;17.55;80.49
8366;BME280;4220;42.502;24.188;2023-04-22T09:22:46;95008.88;;;17.36;81.58
8366;BME280;4220;42.502;24.188;2023-04-22T09:25:16;94996.78;;;17.19;83.44
8366;BME280;4220;42.502;24.188;2023-04-22T09:27:47;94965.16;;;16.44;85.76
8366;BME280;4220;42.502;24.188;2023-04-22T09:30:17;95005.66;;;16.15;84.78
8366;BME280;4220;42.502;24.188;2023-04-22T09:32:51;95004.16;;;15.61;84.05
8366;BME280;4220;42.502;24.188;2023-04-22T09:35:23;94958.38;;;14.99;86.54
8366;BME280;4220;42.502;24.188;2023-04-22T09:37:51;95001.84;;;14.94;87.36
8366;BME280;4220;42.502;24.188;2023-04-22T09:40:20;94978.22;;;14.21;90.50
8366;BME280;4220;42.502;24.188;2023-04-22T09:42:47;94999.97;;;13.58;98.42
8366;BME280;4220;42.502;24.188;2023-04-22T09:45:27;95004.75;;;13.12;100.00
8366;BME280;4220;42.502;24.188;2023-04-22T09:47:56;95000.56;;;12.76;99.24
8366;BME280;4220;42.502;24.188;2023-04-22T09:50:26;95018.25;;;12.82;90.74
8366;BME280;4220;42.502;24.188;2023-04-22T09:52:54;94995.63;;;12.68;93.95
8366;BME280;4220;42.502;24.188;2023-04-22T09:55:24;94987.66;;;12.68;95.60
8366;BME280;4220;42.502;24.188;2023-04-22T09:57:52;95007.75;;;12.64;93.46
8366;BME280;4220;42.502;24.188;2023-04-22T10:00:20;94998.22;;;12.39;99.69
8366;BME280;4220;42.502;24.188;2023-04-22T10:02:47;94990.25;;;12.39;100.00
8366;BME280;4220;42.502;24.188;2023-04-22T10:05:15;94985.41;;;12.36;100.00
8366;BME280;4220;42.502;24.188;2023-04-22T10:07:43;94993.25;;;12.43;100.00
8366;BME280;4220;42.502;24.188;2023-04-22T10:10:10;95000.69;;;12.69;86.60
8366;BME280;4220;42.502;24.188;2023-04-22T10:12:38;94887.66;;;12.43;81.08
8366;BME280;4220;42.502;24.188;2023-04-22T10:15:06;94993.13;;;13.34;82.69
8366;BME280;4220;42.502;24.188;2023-04-22T10:17:36;94979.94;;;13.56;89.54
8366;BME280;4220;42.502;24.188;2023-04-22T10:20:07;94976.44;;;13.89;90.02
8366;BME280;4220;42.502;24.188;2023-04-22T10:22:39;94991.69;;;14.10;94.33
8366;BME280;4220;42.502;24.188;2023-04-22T10:25:10;94971.31;;;14.04;95.14
8366;BME280;4220;42.502;24.188;2023-04-22T10:27:39;94958.06;;;14.09;97.77
8366;BME280;4220;42.502;24.188;2023-04-22T10:30:08;94980.38;;;14.03;100.00
8366;BME280;4220;42.502;24.188;2023-04-22T10:32:35;94982.97;;;13.98;100.00
8366;BME280;4220;42.502;24.188;2023-04-22T10:35:10;95025.63;;;14.31;100.00
8366;BME280;4220;42.502;24.188;2023-04-22T10:37:40;95010.06;;;14.28;100.00
8366;BME280;4220;42.502;24.188;2023-04-22T10:40:10;95013.16;;;14.20;100.00
8366;BME280;4220;42.502;24.188;2023-04-22T10:42:46;95016.47;;;14.27;100.00
8366;BME280;4220;42.502;24.188;2023-04-22T10:45:14;95025.69;;;14.36;100.00
8366;BME280;4220;42.502;24.188;2023-04-22T10:47:41;94983.97;;;14.13;100.00
8366;BME280;4220;42.502;24.188;2023-04-22T10:50:14;95008.56;;;14.32;100.00
8366;BME280;4220;42.502;24.188;2023-04-22T10:52:42;94997.06;;;14.31;100.00
8366;BME280;4220;42.502;24.188;2023-04-22T10:55:09;94997.50;;;14.45;100.00
8366;BME280;4220;42.502;24.188;2023-04-22T10:57:38;94997.50;;;14.45;100.00
8366;BME280;4220;42.502;24.188;2023-04-22T11:00:22;94961.34;;;14.54;100.00
8366;BME280;4220;42.502;24.188;2023-04-22T11:03:05;94996.69;;;15.10;98.35
8366;BME280;4220;42.502;24.188;2023-04-22T11:05:33;94990.41;;;15.21;96.64
8366;BME280;4220;42.502;24.188;2023-04-22T11:08:02;94988.88;;;15.30;95.59
8366;BME280;4220;42.502;24.188;2023-04-22T11:10:40;94991.16;;;15.43;93.65
8366;BME280;4220;42.502;24.188;2023-04-22T11:13:09;94994.00;;;15.63;92.80
8366;BME280;4220;42.502;24.188;2023-04-22T11:15:40;94947.13;;;15.82;90.38
8366;BME280;4220;42.502;24.188;2023-04-22T11:18:09;94993.91;;;16.63;88.13
8366;BME280;4220;42.502;24.188;2023-04-22T11:20:36;95014.94;;;17.02;84.87
8366;BME280;4220;42.502;24.188;2023-04-22T11:23:04;95024.38;;;17.19;86.04
8366;BME280;4220;42.502;24.188;2023-04-22T11:25:31;95014.22;;;17.31;82.36
8366;BME280;4220;42.502;24.188;2023-04-22T11:27:57;95026.53;;;17.17;81.94
8366;BME280;4220;42.502;24.188;2023-04-22T11:30:26;95014.94;;;17.02;82.14
8366;BME280;4220;42.502;24.188;2023-04-22T11:32:56;95024.84;;;17.01;83.41
8366;BME280;4220;42.502;24.188;2023-04-22T11:35:26;95008.88;;;17.31;83.15
8366;BME280;4220;42.502;24.188;2023-04-22T11:37:54;95009.22;;;17.55;82.32
8366;BME280;4220;42.502;24.188;2023-04-22T11:40:23;94976.22;;;17.80;80.88
8366;BME280;4220;42.502;24.188;2023-04-22T11:42:50;94998.50;;;18.10;76.93
8366;BME280;4220;42.502;24.188;2023-04-22T11:45:19;95011.63;;;18.52;76.71
8366;BME280;4220;42.502;24.188;2023-04-22T11:47:46;95015.03;;;18.68;75.35
8366;BME280;4220;42.502;24.188;2023-04-22T11:50:17;95025.22;;;18.86;73.47
8366;BME280;4220;42.502;24.188;2023-04-22T11:52:48;95010.56;;;19.17;73.58
8366;BME280;4220;42.502;24.188;2023-04-22T11:55:17;95028.94;;;19.54;72.32
8366;BME280;4220;42.502;24.188;2023-04-22T11:57:45;95020.88;;;19.54;70.24
8366;BME280;4220;42.502;24.188;2023-04-22T12:00:17;95020.88;;;19.54;70.74
8366;BME280;4220;42.502;24.188;2023-04-22T12:02:54;95027.63;;;19.46;69.92
8366;BME280;4220;42.502;24.188;2023-04-22T12:05:31;95016.66;;;19.82;70.16
8366;BME280;4220;42.502;24.188;2023-04-22T12:07:59;95002.09;;;20.16;69.89
8366;BME280;4220;42.502;24.188;2023-04-22T12:10:26;94980.81;;;20.15;67.92
8366;BME280;4220;42.502;24.188;2023-04-22T12:12:53;95008.13;;;20.37;67.34
8366;BME280;4220;42.502;24.188;2023-04-22T12:15:20;94999.78;;;20.39;67.53
8366;BME280;4220;42.502;24.188;2023-04-22T12:17:49;94984.94;;;20.65;67.27
8366;BME280;4220;42.502;24.188;2023-04-22T12:20:15;95009.44;;;20.92;66.01
8366;BME280;4220;42.502;24.188;2023-04-22T12:22:44;95007.09;;;21.09;64.02
8366;BME280;4220;42.502;24.188;2023-04-22T12:25:11;95020.03;;;21.31;63.85
8366;BME280;4220;42.502;24.188;2023-04-22T12:27:37;95015.91;;;21.94;60.89
8366;BME280;4220;42.502;24.188;2023-04-22T12:30:05;95010.88;;;22.52;58.07
8366;BME280;4220;42.502;24.188;2023-04-22T12:32:32;95013.25;;;23.13;56.38
8366;BME280;4220;42.502;24.188;2023-04-22T12:34:59;95021.34;;;23.68;54.27
8366;BME280;4220;42.502;24.188;2023-04-22T12:37:26;95023.88;;;23.86;53.53
8366;BME280;4220;42.502;24.188;2023-04-22T12:39:54;95020.88;;;23.38;53.66
8366;BME280;4220;42.502;24.188;2023-04-22T12:42:21;95019.38;;;22.92;54.16
8366;BME280;4220;42.502;24.188;2023-04-22T12:44:48;95008.38;;;22.10;56.11
8366;BME280;4220;42.502;24.188;2023-04-22T12:47:15;95006.28;;;21.09;59.51
8366;BME280;4220;42.502;24.188;2023-04-22T12:49:42;94996.88;;;20.30;60.83
8366;BME280;4220;42.502;24.188;2023-04-22T12:52:11;95000.41;;;19.58;62.11
8366;BME280;4220;42.502;24.188;2023-04-22T12:54:37;95000.75;;;18.82;65.01
8366;BME280;4220;42.502;24.188;2023-04-22T12:57:06;95003.56;;;18.27;67.71
8366;BME280;4220;42.502;24.188;2023-04-22T12:59:32;95005.47;;;18.16;68.31
8366;BME280;4220;42.502;24.188;2023-04-22T13:01:59;95007.38;;;18.06;68.79
8366;BME280;4220;42.502;24.188;2023-04-22T13:04:26;95011.63;;;18.12;68.27
8366;BME280;4220;42.502;24.188;2023-04-22T13:06:53;95013.78;;;17.90;69.25
8366;BME280;4220;42.502;24.188;2023-04-22T13:09:25;95010.47;;;17.37;71.02